createdAt,value
2018-08-12T00:00:50.208Z,1036.54
2018-08-12T00:01:50.200Z,1036.53
2018-08-12T00:02:50.194Z,1036.53
2018-08-12T00:03:50.188Z,1036.54
2018-08-12T00:04:50.180Z,1036.53
2018-08-12T00:05:50.174Z,1036.52
2018-08-12T00:06:50.169Z,1036.51
2018-08-12T00:07:50.162Z,1036.51
2018-08-12T00:08:50.168Z,1036.54
2018-08-12T00:09:50.148Z,1036.53
2018-08-12T00:10:50.142Z,1036.53
2018-08-12T00:11:50.182Z,1036.52
2018-08-12T00:12:50.129Z,1036.51
2018-08-12T00:13:50.122Z,1036.52
2018-08-12T00:14:50.118Z,1036.5
2018-08-12T00:15:50.110Z,1036.51
2018-08-12T00:16:50.102Z,1036.55
2018-08-12T00:17:50.096Z,1036.48
2018-08-12T00:18:50.090Z,1036.5
2018-08-12T00:19:50.084Z,1036.48
2018-08-12T00:20:50.076Z,1036.49
2018-08-12T00:21:50.070Z,1036.47
2018-08-12T00:22:50.063Z,1036.5
2018-08-12T00:23:50.056Z,1036.48
2018-08-12T00:24:50.053Z,1036.47
2018-08-12T00:25:50.043Z,1036.5
2018-08-12T00:26:50.037Z,1036.49
2018-08-12T00:27:50.035Z,1036.52
2018-08-12T00:28:50.025Z,1036.5
2018-08-12T00:29:50.059Z,1036.49
2018-08-12T00:30:50.010Z,1036.51
2018-08-12T00:31:50.004Z,1036.52
2018-08-12T00:32:49.998Z,1036.6
2018-08-12T00:33:49.990Z,1036.58
2018-08-12T00:34:49.982Z,1036.61
2018-08-12T00:35:49.976Z,1036.62
2018-08-12T00:36:49.972Z,1036.6
2018-08-12T00:37:49.966Z,1036.65
2018-08-12T00:38:49.956Z,1036.62
2018-08-12T00:39:49.955Z,1036.62
2018-08-12T00:40:49.943Z,1036.63
2018-08-12T00:41:49.938Z,1036.61
2018-08-12T00:42:49.928Z,1036.6
2018-08-12T00:43:49.922Z,1036.63
2018-08-12T00:44:49.916Z,1036.61
2018-08-12T00:45:49.910Z,1036.59
2018-08-12T00:46:49.901Z,1036.59
2018-08-12T00:47:49.894Z,1036.56
2018-08-12T00:48:49.888Z,1036.54
2018-08-12T00:49:49.881Z,1036.54
2018-08-12T00:50:49.874Z,1036.51
2018-08-12T00:51:49.868Z,1036.54
2018-08-12T00:52:49.860Z,1036.54
2018-08-12T00:53:49.853Z,1036.53
2018-08-12T00:54:49.848Z,1036.53
2018-08-12T00:55:49.841Z,1036.56
2018-08-12T00:56:49.833Z,1036.56
2018-08-12T00:57:49.852Z,1036.57
2018-08-12T00:58:49.822Z,1036.55
2018-08-12T00:59:49.812Z,1036.56
2018-08-12T01:00:49.805Z,1036.57
2018-08-12T01:01:49.802Z,1036.57
2018-08-12T01:02:49.791Z,1036.57
2018-08-12T01:03:49.784Z,1036.54
2018-08-12T01:04:49.778Z,1036.56
2018-08-12T01:05:49.771Z,1036.56
2018-08-12T01:06:49.764Z,1036.5
2018-08-12T01:07:49.757Z,1036.54
2018-08-12T01:08:49.750Z,1036.56
2018-08-12T01:09:49.743Z,1036.55
2018-08-12T01:10:49.736Z,1036.51
2018-08-12T01:11:49.729Z,1036.49
2018-08-12T01:12:49.722Z,1036.5
2018-08-12T01:13:49.716Z,1036.47
2018-08-12T01:14:49.708Z,1036.5
2018-08-12T01:15:49.702Z,1036.5
2018-08-12T01:16:49.695Z,1036.51
2018-08-12T01:17:49.688Z,1036.48
2018-08-12T01:18:49.681Z,1036.48
2018-08-12T01:19:49.675Z,1036.49
2018-08-12T01:20:49.668Z,1036.5
2018-08-12T01:21:49.660Z,1036.46
2018-08-12T01:22:49.660Z,1036.45
2018-08-12T01:23:49.651Z,1036.45
2018-08-12T01:24:49.649Z,1036.46
2018-08-12T01:25:49.632Z,1036.46
2018-08-12T01:26:49.626Z,1036.44
2018-08-12T01:27:49.623Z,1036.39
2018-08-12T01:28:49.613Z,1036.4
2018-08-12T01:29:49.605Z,1036.4
2018-08-12T01:30:49.598Z,1036.41
2018-08-12T01:31:49.591Z,1036.38
2018-08-12T01:32:49.590Z,1036.41
2018-08-12T01:33:49.577Z,1036.39
2018-08-12T01:34:49.571Z,1036.41
2018-08-12T01:35:49.569Z,1036.39
2018-08-12T01:36:49.555Z,1036.35
2018-08-12T01:37:49.548Z,1036.35
2018-08-12T01:38:49.542Z,1036.32
2018-08-12T01:39:49.534Z,1036.32
2018-08-12T01:40:49.530Z,1036.32
2018-08-12T01:41:49.771Z,1036.31
2018-08-12T01:42:49.515Z,1036.3
2018-08-12T01:43:49.510Z,1036.29
2018-08-12T01:44:49.499Z,1036.32
2018-08-12T01:45:49.495Z,1036.33
2018-08-12T01:46:49.486Z,1036.33
2018-08-12T01:47:49.483Z,1036.3
2018-08-12T01:48:49.480Z,1036.31
2018-08-12T01:49:49.464Z,1036.31
2018-08-12T01:50:49.458Z,1036.29
2018-08-12T01:51:49.450Z,1036.32
2018-08-12T01:52:49.443Z,1036.36
2018-08-12T01:53:49.442Z,1036.39
2018-08-12T01:54:49.428Z,1036.37
2018-08-12T01:55:49.421Z,1036.38
2018-08-12T01:56:49.416Z,1036.37
2018-08-12T01:57:49.414Z,1036.41
2018-08-12T01:58:49.412Z,1036.44
2018-08-12T01:59:49.398Z,1036.4
2018-08-12T02:00:49.387Z,1036.44
2018-08-12T02:01:49.380Z,1036.44
2018-08-12T02:02:49.377Z,1036.44
2018-08-12T02:03:49.365Z,1036.4
2018-08-12T02:04:49.359Z,1036.41
2018-08-12T02:05:49.350Z,1036.39
2018-08-12T02:06:49.344Z,1036.44
2018-08-12T02:07:49.336Z,1036.44
2018-08-12T02:08:49.330Z,1036.41
2018-08-12T02:09:49.325Z,1036.43
2018-08-12T02:10:49.315Z,1036.46
2018-08-12T02:11:49.309Z,1036.46
2018-08-12T02:12:49.300Z,1036.45
2018-08-12T02:13:49.294Z,1036.47
2018-08-12T02:14:49.286Z,1036.46
2018-08-12T02:15:49.279Z,1036.47
2018-08-12T02:16:49.272Z,1036.44
2018-08-12T02:17:49.265Z,1036.45
2018-08-12T02:18:49.259Z,1036.44
2018-08-12T02:19:49.251Z,1036.46
2018-08-12T02:20:49.244Z,1036.43
2018-08-12T02:21:49.240Z,1036.47
2018-08-12T02:22:49.229Z,1036.49
2018-08-12T02:23:49.221Z,1036.48
2018-08-12T02:24:49.215Z,1036.47
2018-08-12T02:25:49.207Z,1036.47
2018-08-12T02:26:49.202Z,1036.49
2018-08-12T02:27:49.193Z,1036.44
2018-08-12T02:28:49.186Z,1036.48
2018-08-12T02:29:49.179Z,1036.44
2018-08-12T02:30:49.173Z,1036.42
2018-08-12T02:31:49.164Z,1036.46
2018-08-12T02:32:49.168Z,1036.43
2018-08-12T02:33:49.153Z,1036.41
2018-08-12T02:34:49.142Z,1036.44
2018-08-12T02:35:49.135Z,1036.47
2018-08-12T02:36:49.132Z,1036.47
2018-08-12T02:37:49.121Z,1036.49
2018-08-12T02:38:49.113Z,1036.48
2018-08-12T02:39:49.107Z,1036.46
2018-08-12T02:40:49.103Z,1036.47
2018-08-12T02:41:49.093Z,1036.45
2018-08-12T02:42:49.085Z,1036.47
2018-08-12T02:43:49.079Z,1036.49
2018-08-12T02:44:49.071Z,1036.52
2018-08-12T02:45:49.063Z,1036.51
2018-08-12T02:46:49.057Z,1036.55
2018-08-12T02:47:49.049Z,1036.54
2018-08-12T02:48:49.042Z,1036.51
2018-08-12T02:49:49.043Z,1036.55
2018-08-12T02:50:49.028Z,1036.5
2018-08-12T02:51:49.020Z,1036.51
2018-08-12T02:52:49.016Z,1036.5
2018-08-12T02:53:49.006Z,1036.46
2018-08-12T02:54:49.000Z,1036.47
2018-08-12T02:55:48.992Z,1036.44
2018-08-12T02:56:48.984Z,1036.47
2018-08-12T02:57:48.977Z,1036.48
2018-08-12T02:58:48.975Z,1036.47
2018-08-12T02:59:48.963Z,1036.47
2018-08-12T03:00:48.955Z,1036.5
2018-08-12T03:01:48.948Z,1036.48
2018-08-12T03:02:48.941Z,1036.45
2018-08-12T03:03:48.933Z,1036.5
2018-08-12T03:04:48.931Z,1036.5
2018-08-12T03:05:48.923Z,1036.48
2018-08-12T03:06:48.912Z,1036.48
2018-08-12T03:07:48.904Z,1036.49
2018-08-12T03:08:48.897Z,1036.48
2018-08-12T03:09:48.890Z,1036.47
2018-08-12T03:10:48.882Z,1036.47
2018-08-12T03:11:48.875Z,1036.48
2018-08-12T03:12:48.867Z,1036.51
2018-08-12T03:13:48.861Z,1036.44
2018-08-12T03:14:48.854Z,1036.45
2018-08-12T03:15:48.846Z,1036.46
2018-08-12T03:16:48.838Z,1036.43
2018-08-12T03:17:48.832Z,1036.5
2018-08-12T03:18:48.824Z,1036.45
2018-08-12T03:19:48.819Z,1036.43
2018-08-12T03:20:48.809Z,1036.42
2018-08-12T03:21:48.803Z,1036.43
2018-08-12T03:22:48.793Z,1036.42
2018-08-12T03:23:48.787Z,1036.4
2018-08-12T03:24:48.782Z,1036.4
2018-08-12T03:25:48.772Z,1036.33
2018-08-12T03:26:48.765Z,1036.3
2018-08-12T03:27:48.758Z,1036.28
2018-08-12T03:28:48.751Z,1036.24
2018-08-12T03:29:48.746Z,1036.23
2018-08-12T03:30:48.737Z,1036.24
2018-08-12T03:31:48.732Z,1036.21
2018-08-12T03:32:48.722Z,1036.13
2018-08-12T03:33:48.714Z,1036.17
2018-08-12T03:34:48.707Z,1036.15
2018-08-12T03:35:48.703Z,1036.13
2018-08-12T03:36:48.696Z,1036.12
2018-08-12T03:37:48.685Z,1036.13
2018-08-12T03:38:48.679Z,1036.11
2018-08-12T03:39:48.671Z,1036.13
2018-08-12T03:40:48.665Z,1036.13
2018-08-12T03:41:48.657Z,1036.13
2018-08-12T03:42:48.650Z,1036.13
2018-08-12T03:43:48.643Z,1036.13
2018-08-12T03:44:48.635Z,1036.17
2018-08-12T03:45:48.628Z,1036.12
2018-08-12T03:46:48.622Z,1036.12
2018-08-12T03:47:48.614Z,1036.1
2018-08-12T03:48:48.663Z,1036.12
2018-08-12T03:49:48.600Z,1036.1
2018-08-12T03:50:48.594Z,1036.09
2018-08-12T03:51:48.585Z,1036.06
2018-08-12T03:52:48.579Z,1036.1
2018-08-12T03:53:48.572Z,1036.06
2018-08-12T03:54:48.565Z,1036.02
2018-08-12T03:55:48.558Z,1036.03
2018-08-12T03:56:48.551Z,1036
2018-08-12T03:57:48.544Z,1036
2018-08-12T03:58:48.545Z,1035.92
2018-08-12T03:59:48.544Z,1035.94
2018-08-12T04:00:48.524Z,1035.94
2018-08-12T04:01:48.517Z,1035.91
2018-08-12T04:02:48.510Z,1035.88
2018-08-12T04:03:48.503Z,1035.85
2018-08-12T04:04:48.497Z,1035.81
2018-08-12T04:05:48.489Z,1035.78
2018-08-12T04:06:48.483Z,1035.7
2018-08-12T04:07:48.476Z,1035.65
2018-08-12T04:08:48.470Z,1035.63
2018-08-12T04:09:48.462Z,1035.61
2018-08-12T04:10:48.456Z,1035.61
2018-08-12T04:11:48.449Z,1035.57
2018-08-12T04:12:48.444Z,1035.52
2018-08-12T04:13:48.436Z,1035.5
2018-08-12T04:14:48.432Z,1035.49
2018-08-12T04:15:48.424Z,1035.49
2018-08-12T04:16:48.418Z,1035.46
2018-08-12T04:17:48.410Z,1035.39
2018-08-12T04:18:48.459Z,1035.34
2018-08-12T04:19:48.399Z,1035.34
2018-08-12T04:20:48.391Z,1035.23
2018-08-12T04:21:48.385Z,1035.03
2018-08-12T04:22:48.379Z,1034.84
2018-08-12T04:23:48.377Z,1034.71
2018-08-12T04:24:48.366Z,1034.52
2018-08-12T04:25:48.360Z,1034.36
2018-08-12T04:26:48.360Z,1034.28
2018-08-12T04:27:48.349Z,1034.32
2018-08-12T04:28:48.344Z,1034.34
2018-08-12T04:29:48.339Z,1034.35
2018-08-12T04:30:48.333Z,1034.34
2018-08-12T04:31:48.327Z,1034.33
2018-08-12T04:32:48.322Z,1034.26
2018-08-12T04:33:48.317Z,1034.19
2018-08-12T04:34:48.312Z,1034.12
2018-08-12T04:35:48.306Z,1033.91
2018-08-12T04:36:48.301Z,1033.67
2018-08-12T04:37:48.296Z,1033.44
2018-08-12T04:38:48.290Z,1033.29
2018-08-12T04:39:48.287Z,1033.25
2018-08-12T04:40:48.284Z,1033.09
2018-08-12T04:41:48.282Z,1032.86
2018-08-12T04:42:48.273Z,1032.71
2018-08-12T04:43:48.271Z,1032.52
2018-08-12T04:44:48.265Z,1032.37
2018-08-12T04:45:48.266Z,1032.23
2018-08-12T04:46:48.257Z,1032.09
2018-08-12T04:47:48.254Z,1031.93
2018-08-12T04:48:48.501Z,1031.81
2018-08-12T04:49:48.246Z,1031.61
2018-08-12T04:50:48.250Z,1031.47
2018-08-12T04:51:48.242Z,1031.3
2018-08-12T04:52:48.239Z,1031.29
2018-08-12T04:53:48.236Z,1031.13
2018-08-12T04:54:48.234Z,1031.02
2018-08-12T04:55:48.233Z,1030.92
2018-08-12T04:56:48.231Z,1030.79
2018-08-12T04:57:48.229Z,1030.71
2018-08-12T04:58:48.227Z,1030.58
2018-08-12T04:59:48.226Z,1030.44
2018-08-12T05:00:48.231Z,1030.37
2018-08-12T05:01:48.225Z,1030.28
2018-08-12T05:02:48.225Z,1030.18
2018-08-12T05:03:48.225Z,1030.01
2018-08-12T05:04:48.224Z,1029.95
2018-08-12T05:05:48.230Z,1029.87
2018-08-12T05:06:48.227Z,1029.83
2018-08-12T05:07:48.226Z,1029.68
2018-08-12T05:08:48.226Z,1029.56
2018-08-12T05:09:48.228Z,1029.49
2018-08-12T05:10:48.232Z,1029.36
2018-08-12T05:11:48.231Z,1029.28
2018-08-12T05:12:48.233Z,1029.21
2018-08-12T05:13:48.239Z,1029.1
2018-08-12T05:14:48.239Z,1028.97
2018-08-12T05:15:48.239Z,1028.9
2018-08-12T05:16:48.242Z,1028.84
2018-08-12T05:17:48.246Z,1028.79
2018-08-12T05:18:48.250Z,1028.77
2018-08-12T05:19:48.252Z,1028.67
2018-08-12T05:20:48.256Z,1028.59
2018-08-12T05:21:48.261Z,1028.54
2018-08-12T05:22:48.281Z,1028.52
2018-08-12T05:23:48.269Z,1028.46
2018-08-12T05:24:48.272Z,1028.45
2018-08-12T05:25:48.277Z,1028.34
2018-08-12T05:26:48.281Z,1028.31
2018-08-12T05:27:48.287Z,1028.22
2018-08-12T05:28:48.292Z,1028.14
2018-08-12T05:29:48.297Z,1028.07
2018-08-12T05:30:48.302Z,1028.02
2018-08-12T05:31:48.309Z,1027.96
2018-08-12T05:32:48.313Z,1027.81
2018-08-12T05:33:48.319Z,1027.75
2018-08-12T05:34:48.325Z,1027.66
2018-08-12T05:35:48.331Z,1027.63
2018-08-12T05:36:48.337Z,1027.46
2018-08-12T05:37:48.343Z,1027.56
2018-08-12T05:38:48.350Z,1027.46
2018-08-12T05:39:48.356Z,1027.35
2018-08-12T05:40:48.364Z,1027.25
2018-08-12T05:41:48.371Z,1027.17
2018-08-12T05:42:48.377Z,1027.11
2018-08-12T05:43:48.384Z,1027.05
2018-08-12T05:44:48.390Z,1027.11
2018-08-12T05:45:48.401Z,1027.1
2018-08-12T05:46:48.406Z,1027.03
2018-08-12T05:47:48.414Z,1027
2018-08-12T05:48:48.424Z,1026.96
2018-08-12T05:49:48.428Z,1026.87
2018-08-12T05:50:48.437Z,1026.76
2018-08-12T05:51:48.446Z,1026.75
2018-08-12T05:52:48.452Z,1026.59
2018-08-12T05:53:48.461Z,1026.72
2018-08-12T05:54:48.471Z,1026.8
2018-08-12T05:55:48.477Z,1026.81
2018-08-12T05:56:48.487Z,1026.74
2018-08-12T05:57:48.495Z,1026.7
2018-08-12T05:58:48.504Z,1026.6
2018-08-12T05:59:48.511Z,1026.5
2018-08-12T06:00:48.521Z,1026.25
2018-08-12T06:01:48.529Z,1026.32
2018-08-12T06:02:48.628Z,1026.39
2018-08-12T06:03:48.548Z,1026.51
2018-08-12T06:04:48.557Z,1026.54
2018-08-12T06:05:48.567Z,1026.52
2018-08-12T06:06:48.585Z,1026.57
2018-08-12T06:07:48.585Z,1026.59
2018-08-12T06:08:48.624Z,1026.36
2018-08-12T06:09:48.603Z,1026.27
2018-08-12T06:10:48.612Z,1026.2
2018-08-12T06:11:48.622Z,1026.08
2018-08-12T06:12:48.631Z,1025.99
2018-08-12T06:13:48.640Z,1025.9
2018-08-12T06:14:48.649Z,1025.84
2018-08-12T06:15:48.661Z,1025.8
2018-08-12T06:16:48.678Z,1025.82
2018-08-12T06:17:48.683Z,1025.87
2018-08-12T06:18:48.692Z,1025.82
2018-08-12T06:19:48.699Z,1025.93
2018-08-12T06:20:48.709Z,1025.82
2018-08-12T06:21:48.719Z,1025.71
2018-08-12T06:22:48.734Z,1025.63
2018-08-12T06:23:48.740Z,1025.68
2018-08-12T06:24:48.750Z,1025.54
2018-08-12T06:25:48.814Z,1025.12
2018-08-12T06:26:48.771Z,1025.64
2018-08-12T06:27:48.782Z,1025.53
2018-08-12T06:28:48.792Z,1025.44
2018-08-12T06:29:48.807Z,1025.24
2018-08-12T06:30:48.817Z,1025.24
2018-08-12T06:31:48.827Z,1025.21
2018-08-12T06:32:48.837Z,1025.26
2018-08-12T06:33:48.849Z,1025.28
2018-08-12T06:34:48.860Z,1025.45
2018-08-12T06:35:48.870Z,1025.55
2018-08-12T06:36:48.882Z,1025.81
2018-08-12T06:37:48.895Z,1026.11
2018-08-12T06:38:48.904Z,1026.21
2018-08-12T06:39:48.976Z,1026.14
2018-08-12T06:40:48.925Z,1026.1
2018-08-12T06:42:48.953Z,1026.02
2018-08-12T06:43:48.958Z,1026.07
2018-08-12T06:44:48.969Z,1026.13
2018-08-12T06:45:48.984Z,1025.59
2018-08-12T06:46:48.990Z,1025.92
2018-08-12T06:47:49.003Z,1025.99
2018-08-12T06:49:49.023Z,1025.73
2018-08-12T06:50:49.034Z,1025.72
2018-08-12T06:51:49.151Z,1026.12
2018-08-12T06:53:49.066Z,1026.08
2018-08-12T06:54:49.076Z,1025.92
2018-08-12T06:55:49.089Z,1025.62
2018-08-12T06:56:49.098Z,1025.51
2018-08-12T06:57:49.110Z,1025.45
2018-08-12T06:58:49.119Z,1025.32
2018-08-12T06:59:49.130Z,1025.12
2018-08-12T07:00:49.142Z,1025.28
2018-08-12T07:01:49.152Z,1025.27
2018-08-12T07:02:49.164Z,1025.39
2018-08-12T07:03:49.178Z,1025.32
2018-08-12T07:04:49.995Z,1025.35
2018-08-12T07:05:49.195Z,1025.38
2018-08-12T07:06:49.206Z,1025.23
2018-08-12T07:07:49.220Z,1025.09
2018-08-12T07:08:49.228Z,1024.91
2018-08-12T07:09:49.239Z,1024.49
2018-08-12T07:10:49.251Z,1024.99
2018-08-12T07:11:49.270Z,1024.78
2018-08-12T07:12:49.272Z,1024.62
2018-08-12T07:13:49.284Z,1024.44
2018-08-12T07:14:49.296Z,1024.21
2018-08-12T07:15:49.308Z,1024.06
2018-08-12T07:16:49.318Z,1023.95
2018-08-12T07:17:49.331Z,1023.91
2018-08-12T07:19:49.354Z,1023.88
2018-08-12T07:20:49.367Z,1023.9
2018-08-12T07:21:49.380Z,1023.97
2018-08-12T07:22:49.392Z,1023.98
2018-08-12T07:23:49.405Z,1023.99
2018-08-12T07:24:49.785Z,1024
2018-08-12T07:25:49.431Z,1023.99
2018-08-12T07:26:49.448Z,1024.01
2018-08-12T07:27:49.456Z,1024.11
2018-08-12T07:28:49.470Z,1024.08
2018-08-12T07:29:49.483Z,1024.09
2018-08-12T07:30:49.496Z,1024.1
2018-08-12T07:31:49.515Z,1024.08
2018-08-12T07:32:49.553Z,1024.17
2018-08-12T07:33:49.538Z,1024.18
2018-08-12T07:34:49.550Z,1024.13
2018-08-12T07:35:49.564Z,1024.15
2018-08-12T07:36:49.578Z,1024.04
2018-08-12T07:37:49.592Z,1023.89
2018-08-12T07:38:49.705Z,1023.87
2018-08-12T07:39:49.622Z,1023.93
2018-08-12T07:40:49.635Z,1024.01
2018-08-12T07:41:49.648Z,1024.05
2018-08-12T07:42:49.662Z,1024.03
2018-08-12T07:43:49.677Z,1024.02
2018-08-12T07:44:49.691Z,1023.94
2018-08-12T07:45:49.704Z,1023.86
2018-08-12T07:46:49.724Z,1023.83
2018-08-12T07:47:49.734Z,1023.75
2018-08-12T07:48:49.813Z,1023.74
2018-08-12T07:49:49.762Z,1023.73
2018-08-12T07:50:49.778Z,1023.66
2018-08-12T07:52:49.821Z,1023.67
2018-08-12T07:53:49.822Z,1023.69
2018-08-12T07:54:49.838Z,1023.77
2018-08-12T07:55:49.890Z,1023.73
2018-08-12T07:56:49.869Z,1023.69
2018-08-12T07:57:49.883Z,1023.62
2018-08-12T07:58:49.899Z,1023.44
2018-08-12T07:59:49.917Z,1023.34
2018-08-12T08:00:49.930Z,1023.11
2018-08-12T08:02:49.963Z,1022.78
2018-08-12T08:03:49.978Z,1022.58
2018-08-12T08:04:49.995Z,1022.49
2018-08-12T08:05:50.012Z,1022.42
2018-08-12T08:06:50.030Z,1022.39
2018-08-12T08:07:50.044Z,1022.22
2018-08-12T08:08:50.064Z,1022.13
2018-08-12T08:09:50.078Z,1022.08
2018-08-12T08:10:50.095Z,1022.03
2018-08-12T08:12:50.128Z,1022.17
2018-08-12T08:13:50.145Z,1022.28
2018-08-12T08:14:50.162Z,1022.36
2018-08-12T08:15:50.179Z,1022.56
2018-08-12T08:16:50.196Z,1022.85
2018-08-12T08:17:50.217Z,1023.16
2018-08-12T08:18:50.229Z,1023.47
2018-08-12T08:19:50.312Z,1023.72
2018-08-12T08:20:50.263Z,1023.94
2018-08-12T08:21:50.279Z,1024.12
2018-08-12T08:22:50.295Z,1024.24
2018-08-12T08:23:50.311Z,1024.38
2018-08-12T08:24:50.328Z,1024.5
2018-08-12T08:25:50.433Z,1024.54
2018-08-12T08:26:50.359Z,1024.59
2018-08-12T08:27:50.373Z,1024.64
2018-08-12T08:28:50.388Z,1024.66
2018-08-12T08:29:50.404Z,1024.67
2018-08-12T08:30:50.419Z,1024.73
2018-08-12T08:32:50.446Z,1024.7
2018-08-12T08:33:50.460Z,1024.71
2018-08-12T08:34:50.476Z,1024.69
2018-08-12T08:35:50.490Z,1024.69
2018-08-12T08:36:50.503Z,1024.67
2018-08-12T08:37:50.516Z,1024.66
2018-08-12T08:38:50.532Z,1024.63
2018-08-12T08:39:50.544Z,1024.64
2018-08-12T08:40:50.557Z,1024.92
2018-08-12T08:41:50.570Z,1025.45
2018-08-12T08:42:50.584Z,1026.28
2018-08-12T08:43:50.639Z,1026.9
2018-08-12T08:44:50.609Z,1027.42
2018-08-12T08:45:50.622Z,1027.71
2018-08-12T08:46:50.637Z,1028.07
2018-08-12T08:47:50.676Z,1028.36
2018-08-12T08:48:50.656Z,1028.71
2018-08-12T08:49:50.718Z,1028.86
2018-08-12T08:50:50.813Z,1029.09
2018-08-12T08:51:50.688Z,1029.23
2018-08-12T08:52:50.698Z,1029.43
2018-08-12T08:53:50.707Z,1029.62
2018-08-12T08:54:50.716Z,1029.69
2018-08-12T08:55:50.836Z,1029.84
2018-08-12T08:56:50.734Z,1030
2018-08-12T08:57:50.742Z,1030.04
2018-08-12T08:58:50.750Z,1030.12
2018-08-12T08:59:50.761Z,1030.15
2018-08-12T09:00:50.764Z,1030.28
2018-08-12T09:01:50.773Z,1030.24
2018-08-12T09:02:50.782Z,1030.3
2018-08-12T09:03:50.785Z,1030.31
2018-08-12T09:04:50.792Z,1030.36
2018-08-12T09:05:50.796Z,1030.41
2018-08-12T09:06:50.803Z,1030.44
2018-08-12T09:07:50.847Z,1030.44
2018-08-12T09:08:50.978Z,1030.53
2018-08-12T09:09:50.821Z,1030.59
2018-08-12T09:10:50.824Z,1030.62
2018-08-12T09:11:50.832Z,1030.68
2018-08-12T09:12:50.835Z,1030.71
2018-08-12T09:13:50.841Z,1030.71
2018-08-12T09:14:50.844Z,1030.76
2018-08-12T09:15:50.849Z,1030.81
2018-08-12T09:16:50.852Z,1030.86
2018-08-12T09:17:50.866Z,1030.79
2018-08-12T09:18:50.861Z,1030.81
2018-08-12T09:19:50.876Z,1030.8
2018-08-12T09:20:50.868Z,1030.8
2018-08-12T09:21:50.871Z,1030.8
2018-08-12T09:22:50.876Z,1030.79
2018-08-12T09:23:50.915Z,1030.78
2018-08-12T09:24:50.881Z,1030.77
2018-08-12T09:25:50.886Z,1030.8
2018-08-12T09:26:50.887Z,1030.82
2018-08-12T09:27:50.890Z,1030.81
2018-08-12T09:28:50.893Z,1030.86
2018-08-12T09:29:50.895Z,1030.84
2018-08-12T09:30:50.900Z,1030.83
2018-08-12T09:31:50.901Z,1030.84
2018-08-12T09:32:50.904Z,1030.95
2018-08-12T09:33:50.907Z,1030.93
2018-08-12T09:34:50.909Z,1030.91
2018-08-12T09:35:50.913Z,1030.87
2018-08-12T09:36:50.914Z,1030.89
2018-08-12T09:37:50.918Z,1030.92
2018-08-12T09:38:50.918Z,1030.93
2018-08-12T09:39:50.922Z,1030.92
2018-08-12T09:40:50.924Z,1030.96
2018-08-12T09:41:50.929Z,1030.94
2018-08-12T09:42:50.928Z,1030.81
2018-08-12T09:43:50.930Z,1030.81
2018-08-12T09:44:50.936Z,1030.77
2018-08-12T09:45:50.934Z,1030.72
2018-08-12T09:46:50.937Z,1030.7
2018-08-12T09:47:50.939Z,1030.79
2018-08-12T09:48:50.941Z,1030.74
2018-08-12T09:49:50.942Z,1030.72
2018-08-12T09:50:50.946Z,1030.76
2018-08-12T09:51:51.113Z,1030.7
2018-08-12T09:52:50.951Z,1030.71
2018-08-12T09:53:50.950Z,1030.73
2018-08-12T09:54:50.953Z,1030.75
2018-08-12T09:55:50.955Z,1030.68
2018-08-12T09:56:50.956Z,1030.74
2018-08-12T09:57:50.958Z,1030.63
2018-08-12T09:58:50.962Z,1030.63
2018-08-12T09:59:50.963Z,1030.62
2018-08-12T10:00:50.964Z,1030.59
2018-08-12T10:01:50.965Z,1030.63
2018-08-12T10:02:50.967Z,1030.54
2018-08-12T10:03:50.969Z,1030.51
2018-08-12T10:04:50.978Z,1030.43
2018-08-12T10:05:50.973Z,1030.49
2018-08-12T10:06:50.975Z,1030.45
2018-08-12T10:07:50.978Z,1030.43
2018-08-12T10:08:50.977Z,1030.44
2018-08-12T10:09:50.979Z,1030.44
2018-08-12T10:10:50.981Z,1030.43
2018-08-12T10:11:50.982Z,1030.39
2018-08-12T10:12:50.987Z,1030.35
2018-08-12T10:13:50.988Z,1030.38
2018-08-12T10:14:50.988Z,1030.4
2018-08-12T10:15:50.990Z,1030.33
2018-08-12T10:16:50.990Z,1030.33
2018-08-12T10:17:50.996Z,1030.25
2018-08-12T10:18:50.993Z,1030.23
2018-08-12T10:20:50.997Z,1030.19
2018-08-12T10:21:50.999Z,1030.1
2018-08-12T10:22:51.004Z,1030.06
2018-08-12T10:23:51.003Z,1030.03
2018-08-12T10:24:51.004Z,1030.03
2018-08-12T10:25:51.006Z,1030.07
2018-08-12T10:26:51.007Z,1030.05
2018-08-12T10:27:51.009Z,1030.06
2018-08-12T10:28:51.011Z,1030.02
2018-08-12T10:29:51.012Z,1029.87
2018-08-12T10:30:51.014Z,1029.92
2018-08-12T10:31:51.018Z,1029.87
2018-08-12T10:32:51.017Z,1029.85
2018-08-12T10:33:51.019Z,1029.82
2018-08-12T10:34:51.020Z,1029.81
2018-08-12T10:35:51.025Z,1029.82
2018-08-12T10:36:51.024Z,1029.8
2018-08-12T10:37:51.025Z,1029.74
2018-08-12T10:38:51.028Z,1029.72
2018-08-12T10:39:51.029Z,1029.66
2018-08-12T10:40:51.030Z,1029.65
2018-08-12T10:41:51.033Z,1029.64
2018-08-12T10:42:51.034Z,1029.62
2018-08-12T10:43:51.037Z,1029.62
2018-08-12T10:44:51.037Z,1029.59
2018-08-12T10:45:51.039Z,1029.54
2018-08-12T10:46:51.044Z,1029.48
2018-08-12T10:47:51.045Z,1029.56
2018-08-12T10:48:51.046Z,1029.5
2018-08-12T10:49:51.048Z,1029.5
2018-08-12T10:50:51.131Z,1029.47
2018-08-12T10:51:51.052Z,1029.49
2018-08-12T10:52:51.053Z,1029.49
2018-08-12T10:53:51.058Z,1029.47
2018-08-12T10:54:51.056Z,1029.41
2018-08-12T10:55:51.058Z,1029.34
2018-08-12T10:56:51.060Z,1029.25
2018-08-12T10:57:51.062Z,1029.36
2018-08-12T10:58:51.063Z,1029.32
2018-08-12T10:59:51.066Z,1029.38
2018-08-12T11:00:51.069Z,1029.31
2018-08-12T11:01:51.070Z,1029.27
2018-08-12T11:02:51.071Z,1029.21
2018-08-12T11:03:51.074Z,1029.22
2018-08-12T11:04:51.082Z,1029.2
2018-08-12T11:05:51.079Z,1029.23
2018-08-12T11:06:51.079Z,1029.23
2018-08-12T11:07:51.082Z,1029.19
2018-08-12T11:08:51.085Z,1029.09
2018-08-12T11:09:51.086Z,1029.08
2018-08-12T11:10:51.089Z,1029.1
2018-08-12T11:11:51.091Z,1029.07
2018-08-12T11:12:51.243Z,1029.01
2018-08-12T11:13:51.095Z,1028.99
2018-08-12T11:14:51.097Z,1028.93
2018-08-12T11:15:51.100Z,1028.94
2018-08-12T11:16:51.102Z,1028.96
2018-08-12T11:17:51.103Z,1028.87
2018-08-12T11:18:51.105Z,1028.85
2018-08-12T11:19:51.111Z,1028.81
2018-08-12T11:20:51.110Z,1028.86
2018-08-12T11:21:51.115Z,1028.72
2018-08-12T11:22:51.115Z,1028.72
2018-08-12T11:23:51.118Z,1028.75
2018-08-12T11:24:51.119Z,1028.74
2018-08-12T11:25:51.122Z,1028.64
2018-08-12T11:26:51.124Z,1028.68
2018-08-12T11:27:51.128Z,1028.57
2018-08-12T11:28:51.129Z,1028.66
2018-08-12T11:29:51.130Z,1028.65
2018-08-12T11:30:51.134Z,1028.71
2018-08-12T11:31:51.135Z,1028.66
2018-08-12T11:32:51.138Z,1028.59
2018-08-12T11:33:51.141Z,1028.61
2018-08-12T11:34:51.245Z,1028.62
2018-08-12T11:35:51.145Z,1028.69
2018-08-12T11:36:51.159Z,1028.66
2018-08-12T11:37:51.150Z,1028.68
2018-08-12T11:38:51.153Z,1028.68
2018-08-12T11:39:51.155Z,1028.8
2018-08-12T11:40:51.157Z,1028.64
2018-08-12T11:41:51.160Z,1028.6
2018-08-12T11:42:51.162Z,1028.67
2018-08-12T11:43:51.167Z,1028.6
2018-08-12T11:44:51.166Z,1028.58
2018-08-12T11:45:51.169Z,1028.53
2018-08-12T11:46:51.171Z,1028.57
2018-08-12T11:47:51.174Z,1028.56
2018-08-12T11:48:51.176Z,1028.46
2018-08-12T11:49:51.179Z,1028.53
2018-08-12T11:50:51.181Z,1028.54
2018-08-12T11:51:51.184Z,1028.47
2018-08-12T11:52:51.187Z,1028.47
2018-08-12T11:53:51.187Z,1028.39
2018-08-12T11:54:51.193Z,1028.38
2018-08-12T11:55:51.193Z,1028.35
2018-08-12T11:56:51.202Z,1028.39
2018-08-12T11:57:51.199Z,1028.31
2018-08-12T11:58:51.200Z,1028.37
2018-08-12T11:59:51.203Z,1028.42
2018-08-12T12:00:51.205Z,1028.43
2018-08-12T12:01:51.207Z,1028.4
2018-08-12T12:02:51.215Z,1028.46
2018-08-12T12:03:51.212Z,1028.38
2018-08-12T12:04:51.215Z,1028.29
2018-08-12T12:05:51.215Z,1028.38
2018-08-12T12:06:51.223Z,1028.35
2018-08-12T12:07:51.222Z,1028.34
2018-08-12T12:08:51.224Z,1028.32
2018-08-12T12:09:51.225Z,1028.31
2018-08-12T12:10:51.227Z,1028.32
2018-08-12T12:11:51.229Z,1028.36
2018-08-12T12:12:51.231Z,1028.33
2018-08-12T12:13:51.234Z,1028.33
2018-08-12T12:14:51.235Z,1028.28
2018-08-12T12:15:51.237Z,1028.27
2018-08-12T12:16:51.239Z,1028.25
2018-08-12T12:17:51.241Z,1028.28